Aviation Digital Data Service (ADDS)

Output produced by METARs form (1425 UTC 17 November 2019)
found at http://aviationweather.gov/metar/data/
 
Forecast for: ETNT (WITTMUNDHAVEN(GA, DE)
Text: TAF ETNT 171100Z 1712/1721 16005KT 9999 NSW FEW020 BKN180
Forecast period: 1200 to 1600 UTC 17 November 2019
Forecast type: FROM: standard forecast or significant change
Winds: from the SSE (160 degrees) at 6 MPH (5 knots; 2.6 m/s)
Visibility: 6 or more miles 10+ km)
Ceiling: 18000 feet AGL
Clouds: few clouds at 2000 feet AGL
broken clouds at 18000 feet AGL
Weather: NSW  (no significant weather)
Text: BECMG 1716/1718 02010KT 9999 NSW SCT060 BKN090
Forecast period: 1600 to 1800 UTC 17 November 2019
Forecast type: BECOMING: Conditions expected to become as follows by 1800 UTC 17 November 2019
Winds: from the NNE (20 degrees) at 12 MPH (10 knots; 5.1 m/s)
Visibility: 6 or more miles 10+ km)
Ceiling: 9000 feet AGL
Clouds: scattered clouds at 6000 feet AGL
broken clouds at 9000 feet AGL
Weather: NSW  (no significant weather)
Text: BECMG 1718/1720 02012KT 6000 -RA SCT012 BKN020 BY ETGL
Forecast period: 1800 to 2100 UTC 17 November 2019
Forecast type: BECOMING: Conditions expected to become as follows by 2000 UTC 17 November 2019
Winds: from the NNE (20 degrees) at 14 MPH (12 knots; 6.2 m/s)
Visibility: 4 miles (6 km)
Ceiling: 2000 feet AGL
Clouds: scattered clouds at 1200 feet AGL
broken clouds at 2000 feet AGL
Weather: -RA  (light rain)